< < Back
Terminal Aerodrome Forecast


Current Version              Previous Versions:   1  2  3  4  5  6  7  8  9  

Terminal Aerodrome Forecast

687
FTUS42 KJAX 251100
TAFSSI
TAF
KSSI 251120Z 2512/2612 24006KT P6SM SCT060 SCT250
     FM251300 24008KT P6SM SCT020 SCT250
     FM251900 20010KT P6SM VCTS SCT035CB SCT120 BKN250
     FM260100 20008KT P6SM SCT035 SCT120 BKN250=



Latest METAR

532
SAUS70 KWBC 251500 RRK
MTRSSI
METAR KSSI 251453Z AUTO 26011KT 10SM CLR 30/22 A3006 RMK AO2 SLP178
T03000222 51004


USA.gov is the U.S. government's official web portal to all federal, state and local government web resources and services.